sensor_id;sensor_type;location;lat;lon;timestamp;P1;durP1;ratioP1;P2;durP2;ratioP2
4307;SDS011;2167;53.448;9.984;2022-10-26T00:01:33;7.27;;;3.83;;
4307;SDS011;2167;53.448;9.984;2022-10-26T00:03:59;10.10;;;4.13;;
4307;SDS011;2167;53.448;9.984;2022-10-26T00:06:25;8.40;;;4.07;;
4307;SDS011;2167;53.448;9.984;2022-10-26T00:08:55;7.43;;;3.60;;
4307;SDS011;2167;53.448;9.984;2022-10-26T00:11:22;6.50;;;3.67;;
4307;SDS011;2167;53.448;9.984;2022-10-26T00:13:48;7.03;;;3.30;;
4307;SDS011;2167;53.448;9.984;2022-10-26T00:16:25;9.00;;;3.70;;
4307;SDS011;2167;53.448;9.984;2022-10-26T00:18:51;5.93;;;3.13;;
4307;SDS011;2167;53.448;9.984;2022-10-26T00:21:17;5.47;;;2.90;;
4307;SDS011;2167;53.448;9.984;2022-10-26T00:23:43;5.07;;;4.03;;
4307;SDS011;2167;53.448;9.984;2022-10-26T00:26:09;4.50;;;3.13;;
4307;SDS011;2167;53.448;9.984;2022-10-26T00:28:35;6.43;;;5.10;;
4307;SDS011;2167;53.448;9.984;2022-10-26T00:31:02;9.70;;;3.20;;
4307;SDS011;2167;53.448;9.984;2022-10-26T00:33:29;8.93;;;3.57;;
4307;SDS011;2167;53.448;9.984;2022-10-26T00:35:56;4.80;;;3.07;;
4307;SDS011;2167;53.448;9.984;2022-10-26T00:38:22;9.93;;;3.20;;
4307;SDS011;2167;53.448;9.984;2022-10-26T00:40:48;5.57;;;3.40;;
4307;SDS011;2167;53.448;9.984;2022-10-26T00:43:31;3.57;;;3.17;;
4307;SDS011;2167;53.448;9.984;2022-10-26T00:45:58;4.67;;;3.57;;
4307;SDS011;2167;53.448;9.984;2022-10-26T00:48:25;11.93;;;4.53;;
4307;SDS011;2167;53.448;9.984;2022-10-26T00:50:52;5.23;;;3.10;;
4307;SDS011;2167;53.448;9.984;2022-10-26T00:53:18;6.40;;;3.20;;
4307;SDS011;2167;53.448;9.984;2022-10-26T00:55:46;10.80;;;4.10;;
4307;SDS011;2167;53.448;9.984;2022-10-26T00:58:13;6.97;;;3.67;;
4307;SDS011;2167;53.448;9.984;2022-10-26T01:00:39;7.10;;;3.27;;
4307;SDS011;2167;53.448;9.984;2022-10-26T01:03:06;6.32;;;4.10;;
4307;SDS011;2167;53.448;9.984;2022-10-26T01:05:33;4.77;;;3.83;;
4307;SDS011;2167;53.448;9.984;2022-10-26T01:07:59;5.43;;;3.30;;
4307;SDS011;2167;53.448;9.984;2022-10-26T01:10:26;8.03;;;4.40;;
4307;SDS011;2167;53.448;9.984;2022-10-26T01:12:54;4.30;;;3.30;;
4307;SDS011;2167;53.448;9.984;2022-10-26T01:15:21;6.37;;;3.03;;
4307;SDS011;2167;53.448;9.984;2022-10-26T01:17:56;5.00;;;3.20;;
4307;SDS011;2167;53.448;9.984;2022-10-26T01:20:38;6.07;;;3.53;;
4307;SDS011;2167;53.448;9.984;2022-10-26T01:23:20;8.63;;;3.80;;
4307;SDS011;2167;53.448;9.984;2022-10-26T01:30:50;4.57;;;3.50;;
4307;SDS011;2167;53.448;9.984;2022-10-26T01:33:37;6.77;;;3.80;;
4307;SDS011;2167;53.448;9.984;2022-10-26T01:41:12;4.27;;;3.20;;
4307;SDS011;2167;53.448;9.984;2022-10-26T01:43:41;7.00;;;4.13;;
4307;SDS011;2167;53.448;9.984;2022-10-26T01:46:08;9.80;;;3.80;;
4307;SDS011;2167;53.448;9.984;2022-10-26T01:48:35;5.37;;;3.40;;
4307;SDS011;2167;53.448;9.984;2022-10-26T01:51:01;5.37;;;3.20;;
4307;SDS011;2167;53.448;9.984;2022-10-26T01:53:28;5.20;;;3.00;;
4307;SDS011;2167;53.448;9.984;2022-10-26T01:55:55;6.50;;;3.17;;
4307;SDS011;2167;53.448;9.984;2022-10-26T02:01:17;7.47;;;3.33;;
4307;SDS011;2167;53.448;9.984;2022-10-26T02:06:13;5.73;;;3.70;;
4307;SDS011;2167;53.448;9.984;2022-10-26T02:16:24;12.00;;;3.60;;
4307;SDS011;2167;53.448;9.984;2022-10-26T02:21:28;4.60;;;2.73;;
4307;SDS011;2167;53.448;9.984;2022-10-26T02:23:56;8.13;;;4.60;;
4307;SDS011;2167;53.448;9.984;2022-10-26T02:26:23;13.33;;;4.37;;
4307;SDS011;2167;53.448;9.984;2022-10-26T02:28:50;7.30;;;3.57;;
4307;SDS011;2167;53.448;9.984;2022-10-26T02:31:19;4.77;;;3.50;;
4307;SDS011;2167;53.448;9.984;2022-10-26T02:33:47;10.60;;;3.53;;
4307;SDS011;2167;53.448;9.984;2022-10-26T02:36:15;11.57;;;3.73;;
4307;SDS011;2167;53.448;9.984;2022-10-26T02:38:42;5.47;;;2.70;;
4307;SDS011;2167;53.448;9.984;2022-10-26T02:41:10;5.63;;;3.27;;
4307;SDS011;2167;53.448;9.984;2022-10-26T02:43:40;4.93;;;3.70;;
4307;SDS011;2167;53.448;9.984;2022-10-26T02:46:09;9.53;;;4.50;;
4307;SDS011;2167;53.448;9.984;2022-10-26T02:48:36;7.50;;;4.43;;
4307;SDS011;2167;53.448;9.984;2022-10-26T02:51:07;5.60;;;4.40;;
4307;SDS011;2167;53.448;9.984;2022-10-26T02:53:35;6.73;;;3.67;;
4307;SDS011;2167;53.448;9.984;2022-10-26T02:56:09;7.53;;;4.47;;
4307;SDS011;2167;53.448;9.984;2022-10-26T02:58:40;6.73;;;4.07;;
4307;SDS011;2167;53.448;9.984;2022-10-26T03:01:08;5.60;;;3.10;;
4307;SDS011;2167;53.448;9.984;2022-10-26T03:03:34;7.67;;;3.77;;
4307;SDS011;2167;53.448;9.984;2022-10-26T03:06:00;4.77;;;3.13;;
4307;SDS011;2167;53.448;9.984;2022-10-26T03:08:26;9.13;;;3.30;;
4307;SDS011;2167;53.448;9.984;2022-10-26T03:10:52;4.23;;;3.60;;
4307;SDS011;2167;53.448;9.984;2022-10-26T03:13:18;5.30;;;3.97;;
4307;SDS011;2167;53.448;9.984;2022-10-26T03:15:44;5.63;;;3.40;;
4307;SDS011;2167;53.448;9.984;2022-10-26T03:18:10;5.97;;;3.27;;
4307;SDS011;2167;53.448;9.984;2022-10-26T03:20:37;4.53;;;3.30;;
4307;SDS011;2167;53.448;9.984;2022-10-26T03:23:02;5.60;;;3.50;;
4307;SDS011;2167;53.448;9.984;2022-10-26T03:25:28;5.13;;;3.50;;
4307;SDS011;2167;53.448;9.984;2022-10-26T03:27:58;4.47;;;3.00;;
4307;SDS011;2167;53.448;9.984;2022-10-26T03:30:24;5.77;;;3.33;;
4307;SDS011;2167;53.448;9.984;2022-10-26T03:32:51;7.20;;;4.60;;
4307;SDS011;2167;53.448;9.984;2022-10-26T03:35:17;4.37;;;3.00;;
4307;SDS011;2167;53.448;9.984;2022-10-26T03:37:43;4.90;;;3.53;;
4307;SDS011;2167;53.448;9.984;2022-10-26T03:40:09;7.70;;;4.17;;
4307;SDS011;2167;53.448;9.984;2022-10-26T03:42:35;5.43;;;3.27;;
4307;SDS011;2167;53.448;9.984;2022-10-26T03:45:01;7.97;;;3.37;;
4307;SDS011;2167;53.448;9.984;2022-10-26T03:47:27;3.70;;;3.00;;
4307;SDS011;2167;53.448;9.984;2022-10-26T03:49:53;8.23;;;4.60;;
4307;SDS011;2167;53.448;9.984;2022-10-26T03:52:19;7.87;;;4.73;;
4307;SDS011;2167;53.448;9.984;2022-10-26T03:54:45;12.63;;;3.90;;
4307;SDS011;2167;53.448;9.984;2022-10-26T03:57:11;6.90;;;3.63;;
4307;SDS011;2167;53.448;9.984;2022-10-26T03:59:37;5.97;;;4.03;;
4307;SDS011;2167;53.448;9.984;2022-10-26T04:02:03;7.03;;;3.90;;
4307;SDS011;2167;53.448;9.984;2022-10-26T04:04:29;6.20;;;3.13;;
4307;SDS011;2167;53.448;9.984;2022-10-26T04:06:55;9.90;;;3.90;;
4307;SDS011;2167;53.448;9.984;2022-10-26T04:09:21;5.47;;;4.00;;
4307;SDS011;2167;53.448;9.984;2022-10-26T04:11:47;6.37;;;4.50;;
4307;SDS011;2167;53.448;9.984;2022-10-26T04:14:13;8.40;;;4.40;;
4307;SDS011;2167;53.448;9.984;2022-10-26T04:16:39;7.00;;;4.40;;
4307;SDS011;2167;53.448;9.984;2022-10-26T04:19:06;5.77;;;3.97;;
4307;SDS011;2167;53.448;9.984;2022-10-26T04:21:32;7.10;;;3.33;;
4307;SDS011;2167;53.448;9.984;2022-10-26T04:23:59;8.20;;;3.93;;
4307;SDS011;2167;53.448;9.984;2022-10-26T04:26:25;5.50;;;3.90;;
4307;SDS011;2167;53.448;9.984;2022-10-26T04:28:51;7.53;;;3.60;;
4307;SDS011;2167;53.448;9.984;2022-10-26T04:31:18;7.80;;;5.10;;
4307;SDS011;2167;53.448;9.984;2022-10-26T04:33:43;7.60;;;4.10;;
4307;SDS011;2167;53.448;9.984;2022-10-26T04:36:09;5.77;;;3.30;;
4307;SDS011;2167;53.448;9.984;2022-10-26T04:38:36;8.53;;;4.00;;
4307;SDS011;2167;53.448;9.984;2022-10-26T04:41:02;5.47;;;3.90;;
4307;SDS011;2167;53.448;9.984;2022-10-26T04:43:28;7.00;;;4.47;;
4307;SDS011;2167;53.448;9.984;2022-10-26T04:45:57;8.30;;;4.23;;
4307;SDS011;2167;53.448;9.984;2022-10-26T04:48:23;7.60;;;3.90;;
4307;SDS011;2167;53.448;9.984;2022-10-26T04:50:49;6.80;;;3.67;;
4307;SDS011;2167;53.448;9.984;2022-10-26T04:53:15;6.40;;;3.53;;
4307;SDS011;2167;53.448;9.984;2022-10-26T04:55:42;9.53;;;5.27;;
4307;SDS011;2167;53.448;9.984;2022-10-26T04:58:08;8.93;;;4.50;;
4307;SDS011;2167;53.448;9.984;2022-10-26T05:00:34;9.03;;;4.53;;
4307;SDS011;2167;53.448;9.984;2022-10-26T05:03:00;7.60;;;4.10;;
4307;SDS011;2167;53.448;9.984;2022-10-26T05:05:26;8.00;;;4.93;;
4307;SDS011;2167;53.448;9.984;2022-10-26T05:07:53;7.60;;;3.10;;
4307;SDS011;2167;53.448;9.984;2022-10-26T05:10:20;8.13;;;4.73;;
4307;SDS011;2167;53.448;9.984;2022-10-26T05:12:50;5.57;;;3.37;;
4307;SDS011;2167;53.448;9.984;2022-10-26T05:15:16;7.33;;;4.00;;
4307;SDS011;2167;53.448;9.984;2022-10-26T05:17:42;8.10;;;4.43;;
4307;SDS011;2167;53.448;9.984;2022-10-26T05:20:08;11.53;;;3.30;;
4307;SDS011;2167;53.448;9.984;2022-10-26T05:22:37;5.90;;;3.90;;
4307;SDS011;2167;53.448;9.984;2022-10-26T05:25:03;8.70;;;4.27;;
4307;SDS011;2167;53.448;9.984;2022-10-26T05:27:29;6.73;;;4.10;;
4307;SDS011;2167;53.448;9.984;2022-10-26T05:29:55;7.17;;;4.43;;
4307;SDS011;2167;53.448;9.984;2022-10-26T05:32:21;8.70;;;4.20;;
4307;SDS011;2167;53.448;9.984;2022-10-26T05:34:47;7.03;;;4.47;;
4307;SDS011;2167;53.448;9.984;2022-10-26T05:37:13;5.10;;;3.50;;
4307;SDS011;2167;53.448;9.984;2022-10-26T05:39:39;7.53;;;4.53;;
4307;SDS011;2167;53.448;9.984;2022-10-26T05:42:07;9.77;;;4.80;;
4307;SDS011;2167;53.448;9.984;2022-10-26T05:44:33;9.10;;;3.67;;
4307;SDS011;2167;53.448;9.984;2022-10-26T05:46:59;9.53;;;4.00;;
4307;SDS011;2167;53.448;9.984;2022-10-26T05:49:25;10.43;;;4.73;;
4307;SDS011;2167;53.448;9.984;2022-10-26T05:51:52;4.33;;;3.10;;
4307;SDS011;2167;53.448;9.984;2022-10-26T05:54:18;10.45;;;4.70;;
4307;SDS011;2167;53.448;9.984;2022-10-26T05:56:44;6.03;;;3.50;;
4307;SDS011;2167;53.448;9.984;2022-10-26T05:59:14;6.40;;;3.87;;
4307;SDS011;2167;53.448;9.984;2022-10-26T06:06:50;7.60;;;3.37;;
4307;SDS011;2167;53.448;9.984;2022-10-26T06:09:18;9.50;;;3.63;;
4307;SDS011;2167;53.448;9.984;2022-10-26T06:11:44;5.50;;;3.50;;
4307;SDS011;2167;53.448;9.984;2022-10-26T06:14:10;5.80;;;3.23;;
4307;SDS011;2167;53.448;9.984;2022-10-26T06:16:49;4.77;;;3.27;;
4307;SDS011;2167;53.448;9.984;2022-10-26T06:19:35;7.83;;;4.13;;
4307;SDS011;2167;53.448;9.984;2022-10-26T06:22:10;8.83;;;5.00;;
4307;SDS011;2167;53.448;9.984;2022-10-26T06:25:39;7.47;;;4.63;;
4307;SDS011;2167;53.448;9.984;2022-10-26T06:27:55;5.17;;;3.60;;
4307;SDS011;2167;53.448;9.984;2022-10-26T06:30:25;9.47;;;3.17;;
4307;SDS011;2167;53.448;9.984;2022-10-26T06:32:51;6.07;;;3.40;;
4307;SDS011;2167;53.448;9.984;2022-10-26T06:38:19;5.50;;;3.30;;
4307;SDS011;2167;53.448;9.984;2022-10-26T06:40:46;4.67;;;2.67;;
4307;SDS011;2167;53.448;9.984;2022-10-26T06:43:19;4.10;;;3.13;;
4307;SDS011;2167;53.448;9.984;2022-10-26T06:45:47;9.90;;;4.40;;
4307;SDS011;2167;53.448;9.984;2022-10-26T06:48:18;17.23;;;4.27;;
4307;SDS011;2167;53.448;9.984;2022-10-26T06:50:53;10.53;;;3.43;;
4307;SDS011;2167;53.448;9.984;2022-10-26T06:53:26;10.63;;;3.83;;
4307;SDS011;2167;53.448;9.984;2022-10-26T06:55:54;6.07;;;3.37;;
4307;SDS011;2167;53.448;9.984;2022-10-26T06:58:22;6.63;;;3.00;;
4307;SDS011;2167;53.448;9.984;2022-10-26T07:00:50;6.80;;;4.07;;
4307;SDS011;2167;53.448;9.984;2022-10-26T07:03:18;6.03;;;3.30;;
4307;SDS011;2167;53.448;9.984;2022-10-26T07:05:44;6.97;;;3.70;;
4307;SDS011;2167;53.448;9.984;2022-10-26T07:08:10;5.93;;;3.23;;
4307;SDS011;2167;53.448;9.984;2022-10-26T07:10:36;11.13;;;5.03;;
4307;SDS011;2167;53.448;9.984;2022-10-26T07:13:03;6.43;;;3.70;;
4307;SDS011;2167;53.448;9.984;2022-10-26T07:15:29;9.43;;;4.30;;
4307;SDS011;2167;53.448;9.984;2022-10-26T07:17:55;6.10;;;4.43;;
4307;SDS011;2167;53.448;9.984;2022-10-26T07:20:21;7.37;;;4.20;;
4307;SDS011;2167;53.448;9.984;2022-10-26T07:22:51;6.13;;;3.57;;
4307;SDS011;2167;53.448;9.984;2022-10-26T07:25:17;5.97;;;3.90;;
4307;SDS011;2167;53.448;9.984;2022-10-26T07:27:43;15.50;;;4.57;;
4307;SDS011;2167;53.448;9.984;2022-10-26T07:30:09;5.23;;;3.40;;
4307;SDS011;2167;53.448;9.984;2022-10-26T07:32:36;9.13;;;4.77;;
4307;SDS011;2167;53.448;9.984;2022-10-26T07:35:02;5.07;;;3.00;;
4307;SDS011;2167;53.448;9.984;2022-10-26T07:37:27;7.17;;;4.10;;
4307;SDS011;2167;53.448;9.984;2022-10-26T07:39:53;6.07;;;3.43;;
4307;SDS011;2167;53.448;9.984;2022-10-26T07:42:20;17.30;;;4.53;;
4307;SDS011;2167;53.448;9.984;2022-10-26T07:44:46;11.45;;;4.35;;
4307;SDS011;2167;53.448;9.984;2022-10-26T07:47:12;7.37;;;4.40;;
4307;SDS011;2167;53.448;9.984;2022-10-26T07:49:39;6.63;;;3.80;;
4307;SDS011;2167;53.448;9.984;2022-10-26T07:52:05;8.60;;;4.80;;
4307;SDS011;2167;53.448;9.984;2022-10-26T07:54:31;8.50;;;4.10;;
4307;SDS011;2167;53.448;9.984;2022-10-26T07:56:57;7.17;;;5.03;;
4307;SDS011;2167;53.448;9.984;2022-10-26T07:59:23;6.17;;;4.30;;
4307;SDS011;2167;53.448;9.984;2022-10-26T08:01:49;6.10;;;4.03;;
4307;SDS011;2167;53.448;9.984;2022-10-26T08:04:15;8.57;;;5.70;;
4307;SDS011;2167;53.448;9.984;2022-10-26T08:06:41;5.83;;;4.10;;
4307;SDS011;2167;53.448;9.984;2022-10-26T08:09:08;7.70;;;4.83;;
4307;SDS011;2167;53.448;9.984;2022-10-26T08:11:34;8.13;;;4.33;;
4307;SDS011;2167;53.448;9.984;2022-10-26T08:14:01;6.70;;;4.77;;
4307;SDS011;2167;53.448;9.984;2022-10-26T08:16:27;6.73;;;4.50;;
4307;SDS011;2167;53.448;9.984;2022-10-26T08:18:54;8.87;;;4.87;;
4307;SDS011;2167;53.448;9.984;2022-10-26T08:21:20;15.87;;;5.47;;
4307;SDS011;2167;53.448;9.984;2022-10-26T08:23:46;7.90;;;4.13;;
4307;SDS011;2167;53.448;9.984;2022-10-26T08:26:15;5.80;;;4.53;;
4307;SDS011;2167;53.448;9.984;2022-10-26T08:28:42;6.43;;;3.60;;
4307;SDS011;2167;53.448;9.984;2022-10-26T08:31:08;9.53;;;4.80;;
4307;SDS011;2167;53.448;9.984;2022-10-26T08:33:34;11.23;;;5.20;;
4307;SDS011;2167;53.448;9.984;2022-10-26T08:36:01;7.47;;;3.93;;
4307;SDS011;2167;53.448;9.984;2022-10-26T08:38:27;8.80;;;5.68;;
4307;SDS011;2167;53.448;9.984;2022-10-26T08:40:54;10.00;;;5.67;;
4307;SDS011;2167;53.448;9.984;2022-10-26T08:43:25;7.37;;;3.70;;
4307;SDS011;2167;53.448;9.984;2022-10-26T08:48:20;8.70;;;5.07;;
4307;SDS011;2167;53.448;9.984;2022-10-26T08:53:28;7.10;;;4.77;;
4307;SDS011;2167;53.448;9.984;2022-10-26T08:56:00;5.77;;;4.33;;
4307;SDS011;2167;53.448;9.984;2022-10-26T08:58:36;7.90;;;4.53;;
4307;SDS011;2167;53.448;9.984;2022-10-26T09:01:03;7.57;;;5.10;;
4307;SDS011;2167;53.448;9.984;2022-10-26T09:03:29;7.57;;;5.17;;
4307;SDS011;2167;53.448;9.984;2022-10-26T09:14:02;11.97;;;6.47;;
4307;SDS011;2167;53.448;9.984;2022-10-26T09:22:06;7.83;;;4.83;;
4307;SDS011;2167;53.448;9.984;2022-10-26T09:24:41;8.10;;;5.73;;
4307;SDS011;2167;53.448;9.984;2022-10-26T09:29:40;12.30;;;7.23;;
4307;SDS011;2167;53.448;9.984;2022-10-26T09:32:09;12.30;;;6.50;;
4307;SDS011;2167;53.448;9.984;2022-10-26T09:34:38;11.00;;;5.43;;
4307;SDS011;2167;53.448;9.984;2022-10-26T09:37:17;9.97;;;6.80;;
4307;SDS011;2167;53.448;9.984;2022-10-26T09:39:51;10.97;;;6.40;;
4307;SDS011;2167;53.448;9.984;2022-10-26T09:42:21;11.20;;;6.07;;
4307;SDS011;2167;53.448;9.984;2022-10-26T09:44:57;9.83;;;5.63;;
4307;SDS011;2167;53.448;9.984;2022-10-26T09:47:28;10.03;;;6.63;;
4307;SDS011;2167;53.448;9.984;2022-10-26T09:49:57;11.57;;;6.20;;
4307;SDS011;2167;53.448;9.984;2022-10-26T09:52:25;14.90;;;6.40;;
4307;SDS011;2167;53.448;9.984;2022-10-26T09:54:51;11.83;;;5.70;;
4307;SDS011;2167;53.448;9.984;2022-10-26T09:57:18;12.50;;;5.57;;
4307;SDS011;2167;53.448;9.984;2022-10-26T09:59:44;12.40;;;6.43;;
4307;SDS011;2167;53.448;9.984;2022-10-26T10:02:31;7.90;;;5.17;;
4307;SDS011;2167;53.448;9.984;2022-10-26T10:04:57;15.83;;;6.07;;
4307;SDS011;2167;53.448;9.984;2022-10-26T10:07:24;12.23;;;5.40;;
4307;SDS011;2167;53.448;9.984;2022-10-26T10:10:04;9.90;;;5.30;;
4307;SDS011;2167;53.448;9.984;2022-10-26T10:12:30;9.00;;;5.13;;
4307;SDS011;2167;53.448;9.984;2022-10-26T10:14:57;12.63;;;6.20;;
4307;SDS011;2167;53.448;9.984;2022-10-26T10:17:23;9.73;;;4.97;;
4307;SDS011;2167;53.448;9.984;2022-10-26T10:19:50;6.90;;;5.23;;
4307;SDS011;2167;53.448;9.984;2022-10-26T10:22:20;7.10;;;4.60;;
4307;SDS011;2167;53.448;9.984;2022-10-26T10:24:53;8.60;;;4.60;;
4307;SDS011;2167;53.448;9.984;2022-10-26T10:27:19;6.33;;;4.90;;
4307;SDS011;2167;53.448;9.984;2022-10-26T10:29:46;9.33;;;3.60;;
4307;SDS011;2167;53.448;9.984;2022-10-26T10:32:17;5.43;;;4.40;;
4307;SDS011;2167;53.448;9.984;2022-10-26T10:34:50;6.00;;;3.80;;
4307;SDS011;2167;53.448;9.984;2022-10-26T10:37:28;5.83;;;3.17;;
4307;SDS011;2167;53.448;9.984;2022-10-26T10:40:06;9.67;;;3.97;;
4307;SDS011;2167;53.448;9.984;2022-10-26T10:42:33;7.13;;;3.67;;
4307;SDS011;2167;53.448;9.984;2022-10-26T10:45:00;7.47;;;3.03;;
4307;SDS011;2167;53.448;9.984;2022-10-26T10:47:28;5.63;;;3.60;;
4307;SDS011;2167;53.448;9.984;2022-10-26T10:49:57;3.87;;;2.60;;
4307;SDS011;2167;53.448;9.984;2022-10-26T10:52:32;6.83;;;3.40;;
4307;SDS011;2167;53.448;9.984;2022-10-26T10:57:45;9.20;;;3.33;;
4307;SDS011;2167;53.448;9.984;2022-10-26T11:00:14;6.03;;;3.13;;
4307;SDS011;2167;53.448;9.984;2022-10-26T11:05:34;4.00;;;2.30;;
4307;SDS011;2167;53.448;9.984;2022-10-26T11:08:10;4.67;;;2.00;;
4307;SDS011;2167;53.448;9.984;2022-10-26T11:10:49;5.35;;;2.70;;
4307;SDS011;2167;53.448;9.984;2022-10-26T11:13:20;5.90;;;1.93;;
4307;SDS011;2167;53.448;9.984;2022-10-26T11:15:47;2.83;;;2.33;;
4307;SDS011;2167;53.448;9.984;2022-10-26T11:18:16;3.77;;;2.03;;
4307;SDS011;2167;53.448;9.984;2022-10-26T11:20:52;3.70;;;1.93;;
4307;SDS011;2167;53.448;9.984;2022-10-26T11:30:41;4.90;;;1.80;;
4307;SDS011;2167;53.448;9.984;2022-10-26T11:33:14;3.93;;;2.30;;
4307;SDS011;2167;53.448;9.984;2022-10-26T11:35:45;3.53;;;1.83;;
4307;SDS011;2167;53.448;9.984;2022-10-26T11:38:18;2.60;;;2.10;;
4307;SDS011;2167;53.448;9.984;2022-10-26T11:43:21;4.50;;;1.83;;
4307;SDS011;2167;53.448;9.984;2022-10-26T11:45:56;6.87;;;2.30;;
4307;SDS011;2167;53.448;9.984;2022-10-26T11:48:27;3.10;;;1.83;;
4307;SDS011;2167;53.448;9.984;2022-10-26T11:50:55;2.80;;;1.97;;
4307;SDS011;2167;53.448;9.984;2022-10-26T11:53:29;3.20;;;1.97;;
4307;SDS011;2167;53.448;9.984;2022-10-26T11:55:58;3.37;;;2.10;;
4307;SDS011;2167;53.448;9.984;2022-10-26T11:58:27;6.20;;;2.47;;
4307;SDS011;2167;53.448;9.984;2022-10-26T12:00:59;2.37;;;1.70;;
4307;SDS011;2167;53.448;9.984;2022-10-26T12:03:31;2.77;;;1.70;;
4307;SDS011;2167;53.448;9.984;2022-10-26T12:05:59;3.00;;;1.87;;
4307;SDS011;2167;53.448;9.984;2022-10-26T12:08:30;1.97;;;1.40;;
4307;SDS011;2167;53.448;9.984;2022-10-26T12:11:04;4.37;;;1.63;;
4307;SDS011;2167;53.448;9.984;2022-10-26T12:15:59;2.87;;;1.40;;
4307;SDS011;2167;53.448;9.984;2022-10-26T12:21:03;2.27;;;1.10;;
4307;SDS011;2167;53.448;9.984;2022-10-26T12:23:51;5.70;;;2.20;;
4307;SDS011;2167;53.448;9.984;2022-10-26T12:33:59;2.30;;;1.50;;
4307;SDS011;2167;53.448;9.984;2022-10-26T12:42:08;3.13;;;1.97;;
4307;SDS011;2167;53.448;9.984;2022-10-26T12:44:35;4.10;;;1.70;;
4307;SDS011;2167;53.448;9.984;2022-10-26T12:47:05;3.27;;;1.50;;
4307;SDS011;2167;53.448;9.984;2022-10-26T12:55:06;1.93;;;1.13;;
4307;SDS011;2167;53.448;9.984;2022-10-26T13:00:25;3.70;;;1.40;;
4307;SDS011;2167;53.448;9.984;2022-10-26T13:08:16;2.20;;;1.37;;
4307;SDS011;2167;53.448;9.984;2022-10-26T13:11:05;2.43;;;1.60;;
4307;SDS011;2167;53.448;9.984;2022-10-26T13:13:29;2.90;;;1.30;;
4307;SDS011;2167;53.448;9.984;2022-10-26T13:15:56;2.40;;;1.60;;
4307;SDS011;2167;53.448;9.984;2022-10-26T13:18:23;3.23;;;1.43;;
4307;SDS011;2167;53.448;9.984;2022-10-26T13:20:51;2.40;;;1.50;;
4307;SDS011;2167;53.448;9.984;2022-10-26T13:23:20;2.40;;;1.67;;
4307;SDS011;2167;53.448;9.984;2022-10-26T13:26:11;1.70;;;1.60;;
4307;SDS011;2167;53.448;9.984;2022-10-26T13:31:04;1.80;;;1.20;;
4307;SDS011;2167;53.448;9.984;2022-10-26T13:33:35;3.37;;;1.80;;
4307;SDS011;2167;53.448;9.984;2022-10-26T13:36:02;1.93;;;1.77;;
4307;SDS011;2167;53.448;9.984;2022-10-26T13:38:31;6.10;;;1.30;;
4307;SDS011;2167;53.448;9.984;2022-10-26T13:41:12;1.90;;;1.43;;
4307;SDS011;2167;53.448;9.984;2022-10-26T13:43:41;1.50;;;1.20;;
4307;SDS011;2167;53.448;9.984;2022-10-26T13:46:12;3.30;;;1.23;;
4307;SDS011;2167;53.448;9.984;2022-10-26T13:48:45;5.33;;;1.37;;
4307;SDS011;2167;53.448;9.984;2022-10-26T13:51:17;1.63;;;1.03;;
4307;SDS011;2167;53.448;9.984;2022-10-26T13:53:58;1.63;;;1.53;;
4307;SDS011;2167;53.448;9.984;2022-10-26T13:56:31;3.20;;;1.67;;
4307;SDS011;2167;53.448;9.984;2022-10-26T13:59:07;4.60;;;1.70;;
4307;SDS011;2167;53.448;9.984;2022-10-26T14:01:34;2.50;;;1.20;;
4307;SDS011;2167;53.448;9.984;2022-10-26T14:04:13;4.57;;;2.00;;
4307;SDS011;2167;53.448;9.984;2022-10-26T14:06:39;2.30;;;1.57;;
4307;SDS011;2167;53.448;9.984;2022-10-26T14:09:13;5.43;;;1.73;;
4307;SDS011;2167;53.448;9.984;2022-10-26T14:11:56;1.90;;;1.33;;
4307;SDS011;2167;53.448;9.984;2022-10-26T14:14:24;2.60;;;2.00;;
4307;SDS011;2167;53.448;9.984;2022-10-26T14:16:51;1.77;;;1.47;;
4307;SDS011;2167;53.448;9.984;2022-10-26T14:19:37;1.97;;;1.10;;
4307;SDS011;2167;53.448;9.984;2022-10-26T14:22:04;1.30;;;1.20;;
4307;SDS011;2167;53.448;9.984;2022-10-26T14:24:34;2.50;;;1.43;;
4307;SDS011;2167;53.448;9.984;2022-10-26T14:27:26;3.90;;;1.47;;
4307;SDS011;2167;53.448;9.984;2022-10-26T14:29:51;1.77;;;1.63;;
4307;SDS011;2167;53.448;9.984;2022-10-26T14:32:21;2.87;;;1.30;;
4307;SDS011;2167;53.448;9.984;2022-10-26T14:34:48;2.00;;;1.00;;
4307;SDS011;2167;53.448;9.984;2022-10-26T14:37:29;5.53;;;1.60;;
4307;SDS011;2167;53.448;9.984;2022-10-26T14:39:56;2.10;;;1.50;;
4307;SDS011;2167;53.448;9.984;2022-10-26T14:42:33;2.10;;;1.33;;
4307;SDS011;2167;53.448;9.984;2022-10-26T14:45:00;6.40;;;1.80;;
4307;SDS011;2167;53.448;9.984;2022-10-26T14:47:29;3.00;;;1.33;;
4307;SDS011;2167;53.448;9.984;2022-10-26T14:49:56;2.03;;;1.20;;
4307;SDS011;2167;53.448;9.984;2022-10-26T14:52:27;2.50;;;1.60;;
4307;SDS011;2167;53.448;9.984;2022-10-26T14:55:01;3.07;;;1.43;;
4307;SDS011;2167;53.448;9.984;2022-10-26T14:57:28;2.70;;;1.30;;
4307;SDS011;2167;53.448;9.984;2022-10-26T14:59:59;1.20;;;1.10;;
4307;SDS011;2167;53.448;9.984;2022-10-26T15:02:25;1.63;;;1.20;;
4307;SDS011;2167;53.448;9.984;2022-10-26T15:07:23;2.13;;;1.93;;
4307;SDS011;2167;53.448;9.984;2022-10-26T15:10:00;3.70;;;1.70;;
4307;SDS011;2167;53.448;9.984;2022-10-26T15:12:33;1.07;;;0.97;;
4307;SDS011;2167;53.448;9.984;2022-10-26T15:17:36;5.55;;;2.20;;
4307;SDS011;2167;53.448;9.984;2022-10-26T15:20:03;3.27;;;1.50;;
4307;SDS011;2167;53.448;9.984;2022-10-26T15:22:30;1.80;;;1.70;;
4307;SDS011;2167;53.448;9.984;2022-10-26T15:24:57;3.70;;;1.20;;
4307;SDS011;2167;53.448;9.984;2022-10-26T15:27:24;1.20;;;1.10;;
4307;SDS011;2167;53.448;9.984;2022-10-26T15:29:51;1.97;;;1.13;;
4307;SDS011;2167;53.448;9.984;2022-10-26T15:32:24;4.67;;;2.00;;
4307;SDS011;2167;53.448;9.984;2022-10-26T15:37:52;2.00;;;1.17;;
4307;SDS011;2167;53.448;9.984;2022-10-26T15:40:19;3.63;;;1.83;;
4307;SDS011;2167;53.448;9.984;2022-10-26T15:42:49;3.40;;;1.60;;
4307;SDS011;2167;53.448;9.984;2022-10-26T15:47:43;2.10;;;1.00;;
4307;SDS011;2167;53.448;9.984;2022-10-26T15:50:13;3.63;;;1.70;;
4307;SDS011;2167;53.448;9.984;2022-10-26T15:52:40;3.23;;;1.37;;
4307;SDS011;2167;53.448;9.984;2022-10-26T15:55:06;1.30;;;1.20;;
4307;SDS011;2167;53.448;9.984;2022-10-26T15:57:32;1.70;;;1.60;;
4307;SDS011;2167;53.448;9.984;2022-10-26T15:59:58;2.53;;;1.93;;
4307;SDS011;2167;53.448;9.984;2022-10-26T16:02:24;4.80;;;1.63;;
4307;SDS011;2167;53.448;9.984;2022-10-26T16:04:50;2.27;;;1.70;;
4307;SDS011;2167;53.448;9.984;2022-10-26T16:07:16;2.90;;;1.83;;
4307;SDS011;2167;53.448;9.984;2022-10-26T16:09:42;4.70;;;1.70;;
4307;SDS011;2167;53.448;9.984;2022-10-26T16:12:11;2.93;;;2.00;;
4307;SDS011;2167;53.448;9.984;2022-10-26T16:14:38;2.20;;;1.40;;
4307;SDS011;2167;53.448;9.984;2022-10-26T16:17:04;4.30;;;2.17;;
4307;SDS011;2167;53.448;9.984;2022-10-26T16:19:31;3.97;;;1.87;;
4307;SDS011;2167;53.448;9.984;2022-10-26T16:21:57;2.40;;;1.67;;
4307;SDS011;2167;53.448;9.984;2022-10-26T16:24:23;2.60;;;1.83;;
4307;SDS011;2167;53.448;9.984;2022-10-26T16:26:49;3.30;;;2.40;;
4307;SDS011;2167;53.448;9.984;2022-10-26T16:29:17;5.03;;;1.90;;
4307;SDS011;2167;53.448;9.984;2022-10-26T16:31:46;4.63;;;2.33;;
4307;SDS011;2167;53.448;9.984;2022-10-26T16:34:12;4.30;;;1.90;;
4307;SDS011;2167;53.448;9.984;2022-10-26T16:36:39;1.60;;;1.50;;
4307;SDS011;2167;53.448;9.984;2022-10-26T16:39:05;2.03;;;1.70;;
4307;SDS011;2167;53.448;9.984;2022-10-26T16:41:31;3.23;;;1.93;;
4307;SDS011;2167;53.448;9.984;2022-10-26T16:43:58;7.57;;;2.53;;
4307;SDS011;2167;53.448;9.984;2022-10-26T16:46:24;5.27;;;2.13;;
4307;SDS011;2167;53.448;9.984;2022-10-26T16:48:51;5.30;;;1.93;;
4307;SDS011;2167;53.448;9.984;2022-10-26T16:51:24;5.93;;;2.13;;
4307;SDS011;2167;53.448;9.984;2022-10-26T16:53:51;5.67;;;2.40;;
4307;SDS011;2167;53.448;9.984;2022-10-26T16:56:18;3.20;;;2.23;;
4307;SDS011;2167;53.448;9.984;2022-10-26T16:58:45;3.30;;;2.30;;
4307;SDS011;2167;53.448;9.984;2022-10-26T17:01:12;3.50;;;2.37;;
4307;SDS011;2167;53.448;9.984;2022-10-26T17:03:41;2.63;;;2.27;;
4307;SDS011;2167;53.448;9.984;2022-10-26T17:06:07;4.53;;;2.80;;
4307;SDS011;2167;53.448;9.984;2022-10-26T17:08:34;2.50;;;2.30;;
4307;SDS011;2167;53.448;9.984;2022-10-26T17:11:07;2.80;;;2.50;;
4307;SDS011;2167;53.448;9.984;2022-10-26T17:13:34;2.57;;;2.37;;
4307;SDS011;2167;53.448;9.984;2022-10-26T17:16:04;5.20;;;2.63;;
4307;SDS011;2167;53.448;9.984;2022-10-26T17:18:30;3.43;;;2.57;;
4307;SDS011;2167;53.448;9.984;2022-10-26T17:20:56;7.83;;;2.57;;